Philmont, New Mexico
Current Conditions -  °F | °C
As of 10:15 PM on Thursday 30 Oct 2014 (Local Time) from KAXX Reporting Station
Clear Clear  
Wind Chill: 34°   Ceiling: Unl
Heat Index: 34°   Visibility: 10mi
Dew Point: 19°   Wind: 0mph
Humidity: 55%   Direction: NA
Pressure: 30.5"   Gusts: NA
Location:  36.5757°N, 105.05°W
Report Text: KAXX 310415Z AUTO 00000KT 10SM CLR 01/M07 A3050 RMK AO2 T00101071
Loading
Personal Weather Stations






























Interactive Weather Map
Tropical Storm Tracking
New forecast layout! Learn more

10-Day Weather Forecast

Advertisements
Track Severe Weather on mobile